Arlington, Indiana
Current Conditions -  °F | °C
As of 9:53 PM on Wednesday 22 Oct 2014 (Local Time) from KGEZ Reporting Station
Clear Clear  
Wind Chill: 39°   Ceiling: Unl
Heat Index: 43°   Visibility: 10mi
Dew Point: 38°   Wind: 7mph
Humidity: 82%   Direction: 90°E
Pressure: 30.26"   Gusts: NA
Location:  39.64°N, 85.57°W
Report Text: KGEZ 230153Z AUTO 09006KT 10SM CLR 06/03 A3026 RMK AO2 SLP250 T00610033
Loading
Personal Weather Stations






























Interactive Weather Map New forecast layout! Learn more

10-Day Weather Forecast

Advertisements
Track Severe Weather on mobile